sensor_id;sensor_type;location;lat;lon;timestamp;noise_LAeq;noise_LA_min;noise_LA_max;noise_LA01;noise_LA95
66589;Laerm;53447;49.272;11.070;2023-06-26T00:01:39;47.04;37.45;57.83;;
66589;Laerm;53447;49.272;11.070;2023-06-26T00:04:05;42.38;38.93;45.07;;
66589;Laerm;53447;49.272;11.070;2023-06-26T00:06:30;40.79;37.45;43.73;;
66589;Laerm;53447;49.272;11.070;2023-06-26T00:08:55;40.25;37.45;42.31;;
66589;Laerm;53447;49.272;11.070;2023-06-26T00:11:21;40.76;36.71;44.13;;
66589;Laerm;53447;49.272;11.070;2023-06-26T00:13:46;42.29;37.58;44.70;;
66589;Laerm;53447;49.272;11.070;2023-06-26T00:16:11;40.84;36.20;43.04;;
66589;Laerm;53447;49.272;11.070;2023-06-26T00:18:37;40.67;37.02;43.01;;
66589;Laerm;53447;49.272;11.070;2023-06-26T00:21:02;40.31;36.38;42.61;;
66589;Laerm;53447;49.272;11.070;2023-06-26T00:23:27;41.09;37.84;44.60;;
66589;Laerm;53447;49.272;11.070;2023-06-26T00:25:53;40.69;37.31;42.93;;
66589;Laerm;53447;49.272;11.070;2023-06-26T00:28:18;40.54;36.87;43.19;;
66589;Laerm;53447;49.272;11.070;2023-06-26T00:30:43;42.37;36.87;49.83;;
66589;Laerm;53447;49.272;11.070;2023-06-26T00:33:08;41.61;38.42;44.52;;
66589;Laerm;53447;49.272;11.070;2023-06-26T00:35:34;40.65;37.10;43.12;;
66589;Laerm;53447;49.272;11.070;2023-06-26T00:38:00;41.00;37.45;47.14;;
66589;Laerm;53447;49.272;11.070;2023-06-26T00:40:25;40.71;37.71;42.85;;
66589;Laerm;53447;49.272;11.070;2023-06-26T00:42:51;42.23;38.42;44.80;;
66589;Laerm;53447;49.272;11.070;2023-06-26T00:45:17;40.88;37.31;43.67;;
66589;Laerm;53447;49.272;11.070;2023-06-26T00:47:42;40.18;36.02;42.53;;
66589;Laerm;53447;49.272;11.070;2023-06-26T00:50:07;54.48;38.93;68.98;;
66589;Laerm;53447;49.272;11.070;2023-06-26T00:52:33;41.32;37.71;49.57;;
66589;Laerm;53447;49.272;11.070;2023-06-26T00:54:58;41.72;38.28;45.28;;
66589;Laerm;53447;49.272;11.070;2023-06-26T00:57:24;40.87;37.71;43.08;;
66589;Laerm;53447;49.272;11.070;2023-06-26T00:59:49;40.86;36.55;45.05;;
66589;Laerm;53447;49.272;11.070;2023-06-26T01:02:15;41.18;37.71;45.92;;
66589;Laerm;53447;49.272;11.070;2023-06-26T01:04:42;40.48;36.55;43.26;;
66589;Laerm;53447;49.272;11.070;2023-06-26T01:07:11;43.32;38.93;48.37;;
66589;Laerm;53447;49.272;11.070;2023-06-26T01:09:38;42.06;36.87;45.96;;
66589;Laerm;53447;49.272;11.070;2023-06-26T01:12:03;40.03;36.55;43.12;;
66589;Laerm;53447;49.272;11.070;2023-06-26T01:14:28;41.25;36.71;44.65;;
66589;Laerm;53447;49.272;11.070;2023-06-26T01:16:54;41.11;38.08;46.78;;
66589;Laerm;53447;49.272;11.070;2023-06-26T01:19:26;40.65;36.55;44.01;;
66589;Laerm;53447;49.272;11.070;2023-06-26T01:21:58;40.51;37.58;42.97;;
66589;Laerm;53447;49.272;11.070;2023-06-26T01:24:25;41.08;35.82;45.28;;
66589;Laerm;53447;49.272;11.070;2023-06-26T01:26:52;42.07;38.08;45.64;;
66589;Laerm;53447;49.272;11.070;2023-06-26T01:29:18;41.44;37.84;44.73;;
66589;Laerm;53447;49.272;11.070;2023-06-26T01:31:43;40.45;36.71;43.12;;
66589;Laerm;53447;49.272;11.070;2023-06-26T01:34:11;41.01;37.58;43.19;;
66589;Laerm;53447;49.272;11.070;2023-06-26T01:36:36;41.02;38.08;43.26;;
66589;Laerm;53447;49.272;11.070;2023-06-26T01:39:02;41.49;37.84;43.75;;
66589;Laerm;53447;49.272;11.070;2023-06-26T01:41:27;41.51;37.45;44.07;;
66589;Laerm;53447;49.272;11.070;2023-06-26T01:46:39;40.91;37.31;44.46;;
66589;Laerm;53447;49.272;11.070;2023-06-26T01:51:32;40.88;38.08;43.30;;
66589;Laerm;53447;49.272;11.070;2023-06-26T01:54:00;41.93;37.45;44.30;;
66589;Laerm;53447;49.272;11.070;2023-06-26T01:56:25;42.08;39.21;44.22;;
66589;Laerm;53447;49.272;11.070;2023-06-26T01:58:52;41.08;38.08;43.26;;
66589;Laerm;53447;49.272;11.070;2023-06-26T02:01:20;40.74;36.87;50.61;;
66589;Laerm;53447;49.272;11.070;2023-06-26T02:03:45;43.65;37.31;61.35;;
66589;Laerm;53447;49.272;11.070;2023-06-26T02:06:10;47.76;37.45;66.82;;
66589;Laerm;53447;49.272;11.070;2023-06-26T02:08:36;51.55;39.39;67.92;;
66589;Laerm;53447;49.272;11.070;2023-06-26T02:11:01;53.37;39.30;65.75;;
66589;Laerm;53447;49.272;11.070;2023-06-26T02:13:26;54.98;39.39;67.63;;
66589;Laerm;53447;49.272;11.070;2023-06-26T02:15:51;55.52;39.39;67.64;;
66589;Laerm;53447;49.272;11.070;2023-06-26T02:18:17;55.56;39.64;67.30;;
66589;Laerm;53447;49.272;11.070;2023-06-26T02:20:42;55.37;39.21;68.43;;
66589;Laerm;53447;49.272;11.070;2023-06-26T02:23:09;54.85;40.25;70.11;;
66589;Laerm;53447;49.272;11.070;2023-06-26T02:25:34;55.32;41.09;69.45;;
66589;Laerm;53447;49.272;11.070;2023-06-26T02:27:59;54.26;39.39;68.80;;
66589;Laerm;53447;49.272;11.070;2023-06-26T02:30:25;53.36;39.72;69.06;;
66589;Laerm;53447;49.272;11.070;2023-06-26T02:32:50;53.74;39.56;68.87;;
66589;Laerm;53447;49.272;11.070;2023-06-26T02:35:15;53.45;40.11;68.77;;
66589;Laerm;53447;49.272;11.070;2023-06-26T02:37:40;49.06;39.21;64.34;;
66589;Laerm;53447;49.272;11.070;2023-06-26T02:40:06;46.43;39.21;60.05;;
66589;Laerm;53447;49.272;11.070;2023-06-26T02:42:32;46.33;39.64;61.36;;
66589;Laerm;53447;49.272;11.070;2023-06-26T02:44:58;46.75;39.38;63.15;;
66589;Laerm;53447;49.272;11.070;2023-06-26T02:47:23;47.58;39.64;67.39;;
66589;Laerm;53447;49.272;11.070;2023-06-26T02:49:48;41.88;39.48;48.62;;
66589;Laerm;53447;49.272;11.070;2023-06-26T02:52:13;42.48;38.93;51.66;;
66589;Laerm;53447;49.272;11.070;2023-06-26T02:54:39;49.99;40.53;62.88;;
66589;Laerm;53447;49.272;11.070;2023-06-26T02:57:04;50.58;39.21;63.72;;
66589;Laerm;53447;49.272;11.070;2023-06-26T02:59:29;47.10;39.96;58.44;;
66589;Laerm;53447;49.272;11.070;2023-06-26T03:01:54;47.77;39.30;61.08;;
66589;Laerm;53447;49.272;11.070;2023-06-26T03:04:20;50.80;39.56;65.66;;
66589;Laerm;53447;49.272;11.070;2023-06-26T03:06:46;50.76;39.96;62.89;;
66589;Laerm;53447;49.272;11.070;2023-06-26T03:09:11;53.73;40.79;65.05;;
66589;Laerm;53447;49.272;11.070;2023-06-26T03:11:37;52.34;41.09;66.85;;
66589;Laerm;53447;49.272;11.070;2023-06-26T03:14:02;56.89;41.45;67.75;;
66589;Laerm;53447;49.272;11.070;2023-06-26T03:16:27;55.34;41.38;68.13;;
66589;Laerm;53447;49.272;11.070;2023-06-26T03:18:52;55.79;41.32;66.14;;
66589;Laerm;53447;49.272;11.070;2023-06-26T03:21:17;55.38;40.25;68.17;;
66589;Laerm;53447;49.272;11.070;2023-06-26T03:23:43;52.38;39.72;64.98;;
66589;Laerm;53447;49.272;11.070;2023-06-26T03:26:08;55.31;40.72;66.83;;
66589;Laerm;53447;49.272;11.070;2023-06-26T03:28:33;54.81;40.79;66.72;;
66589;Laerm;53447;49.272;11.070;2023-06-26T03:30:58;57.08;41.38;69.40;;
66589;Laerm;53447;49.272;11.070;2023-06-26T03:33:24;55.97;40.80;66.64;;
66589;Laerm;53447;49.272;11.070;2023-06-26T03:35:49;52.21;40.32;65.78;;
66589;Laerm;53447;49.272;11.070;2023-06-26T03:38:15;53.40;40.53;65.05;;
66589;Laerm;53447;49.272;11.070;2023-06-26T03:40:40;50.85;40.03;64.61;;
66589;Laerm;53447;49.272;11.070;2023-06-26T03:43:05;47.58;39.96;63.79;;
66589;Laerm;53447;49.272;11.070;2023-06-26T03:45:30;54.18;40.38;66.13;;
66589;Laerm;53447;49.272;11.070;2023-06-26T03:47:55;54.96;40.79;65.42;;
66589;Laerm;53447;49.272;11.070;2023-06-26T03:50:21;55.42;41.26;66.91;;
66589;Laerm;53447;49.272;11.070;2023-06-26T03:52:46;54.15;41.03;66.10;;
66589;Laerm;53447;49.272;11.070;2023-06-26T03:55:11;55.65;40.25;70.25;;
66589;Laerm;53447;49.272;11.070;2023-06-26T03:57:36;53.79;40.32;66.05;;
66589;Laerm;53447;49.272;11.070;2023-06-26T04:00:02;54.86;41.69;68.32;;
66589;Laerm;53447;49.272;11.070;2023-06-26T04:02:31;56.24;42.53;67.84;;
66589;Laerm;53447;49.272;11.070;2023-06-26T04:04:56;52.41;40.85;65.68;;
66589;Laerm;53447;49.272;11.070;2023-06-26T04:07:21;51.98;40.11;63.35;;
66589;Laerm;53447;49.272;11.070;2023-06-26T04:09:46;52.85;40.66;66.75;;
66589;Laerm;53447;49.272;11.070;2023-06-26T04:12:12;54.42;40.39;65.90;;
66589;Laerm;53447;49.272;11.070;2023-06-26T04:14:37;54.69;39.96;66.58;;
66589;Laerm;53447;49.272;11.070;2023-06-26T04:17:02;55.71;41.03;67.60;;
66589;Laerm;53447;49.272;11.070;2023-06-26T04:19:28;53.75;40.91;67.08;;
66589;Laerm;53447;49.272;11.070;2023-06-26T04:21:53;51.38;40.11;64.78;;
66589;Laerm;53447;49.272;11.070;2023-06-26T04:24:19;49.03;40.32;64.02;;
66589;Laerm;53447;49.272;11.070;2023-06-26T04:26:44;52.73;40.39;66.09;;
66589;Laerm;53447;49.272;11.070;2023-06-26T04:29:10;53.85;41.03;65.55;;
66589;Laerm;53447;49.272;11.070;2023-06-26T04:31:35;54.08;40.46;65.61;;
66589;Laerm;53447;49.272;11.070;2023-06-26T04:34:01;51.38;40.66;64.42;;
66589;Laerm;53447;49.272;11.070;2023-06-26T04:36:26;50.15;40.53;64.46;;
66589;Laerm;53447;49.272;11.070;2023-06-26T04:38:54;42.72;40.11;53.80;;
66589;Laerm;53447;49.272;11.070;2023-06-26T04:41:20;45.38;40.18;60.20;;
66589;Laerm;53447;49.272;11.070;2023-06-26T04:43:45;43.53;40.91;54.47;;
66589;Laerm;53447;49.272;11.070;2023-06-26T04:46:11;48.73;40.79;61.20;;
66589;Laerm;53447;49.272;11.070;2023-06-26T04:48:36;52.80;40.97;66.58;;
66589;Laerm;53447;49.272;11.070;2023-06-26T04:51:02;55.36;40.66;68.20;;
66589;Laerm;53447;49.272;11.070;2023-06-26T04:53:27;54.21;40.32;67.95;;
66589;Laerm;53447;49.272;11.070;2023-06-26T04:55:52;51.84;40.18;65.00;;
66589;Laerm;53447;49.272;11.070;2023-06-26T04:58:18;51.67;40.59;64.49;;
66589;Laerm;53447;49.272;11.070;2023-06-26T05:00:43;54.63;40.66;66.02;;
66589;Laerm;53447;49.272;11.070;2023-06-26T05:03:09;55.70;40.32;70.80;;
66589;Laerm;53447;49.272;11.070;2023-06-26T05:05:34;53.66;40.25;67.45;;
66589;Laerm;53447;49.272;11.070;2023-06-26T05:08:12;55.34;40.46;69.23;;
66589;Laerm;53447;49.272;11.070;2023-06-26T05:10:37;54.01;40.46;67.55;;
66589;Laerm;53447;49.272;11.070;2023-06-26T05:13:03;54.54;40.32;65.77;;
66589;Laerm;53447;49.272;11.070;2023-06-26T05:15:28;51.25;40.66;65.84;;
66589;Laerm;53447;49.272;11.070;2023-06-26T05:17:53;50.15;40.53;64.17;;
66589;Laerm;53447;49.272;11.070;2023-06-26T05:20:18;48.02;39.72;63.11;;
66589;Laerm;53447;49.272;11.070;2023-06-26T05:22:44;51.51;40.97;67.36;;
66589;Laerm;53447;49.272;11.070;2023-06-26T05:25:09;53.44;40.18;71.76;;
66589;Laerm;53447;49.272;11.070;2023-06-26T05:27:35;52.75;40.39;67.39;;
66589;Laerm;53447;49.272;11.070;2023-06-26T05:30:01;43.82;39.56;57.82;;
66589;Laerm;53447;49.272;11.070;2023-06-26T05:32:26;50.35;40.03;68.98;;
66589;Laerm;53447;49.272;11.070;2023-06-26T05:34:52;49.97;39.72;66.27;;
66589;Laerm;53447;49.272;11.070;2023-06-26T05:37:20;53.13;40.11;67.74;;
66589;Laerm;53447;49.272;11.070;2023-06-26T05:39:45;55.45;41.09;70.15;;
66589;Laerm;53447;49.272;11.070;2023-06-26T05:42:11;57.40;40.91;74.75;;
66589;Laerm;53447;49.272;11.070;2023-06-26T05:44:36;55.98;40.72;70.25;;
66589;Laerm;53447;49.272;11.070;2023-06-26T05:47:02;53.64;39.96;67.78;;
66589;Laerm;53447;49.272;11.070;2023-06-26T05:49:27;53.25;40.25;70.54;;
66589;Laerm;53447;49.272;11.070;2023-06-26T05:51:52;54.85;40.32;70.11;;
66589;Laerm;53447;49.272;11.070;2023-06-26T05:54:18;54.73;40.03;68.34;;
66589;Laerm;53447;49.272;11.070;2023-06-26T05:56:43;50.19;39.88;62.04;;
66589;Laerm;53447;49.272;11.070;2023-06-26T05:59:08;51.99;40.03;67.13;;
66589;Laerm;53447;49.272;11.070;2023-06-26T06:01:34;55.75;41.54;70.17;;
66589;Laerm;53447;49.272;11.070;2023-06-26T06:04:00;52.08;45.41;66.03;;
66589;Laerm;53447;49.272;11.070;2023-06-26T06:06:26;53.93;40.11;67.39;;
66589;Laerm;53447;49.272;11.070;2023-06-26T06:08:51;54.81;40.32;71.99;;
66589;Laerm;53447;49.272;11.070;2023-06-26T06:11:16;52.09;39.64;66.29;;
66589;Laerm;53447;49.272;11.070;2023-06-26T06:13:41;52.26;40.53;67.79;;
66589;Laerm;53447;49.272;11.070;2023-06-26T06:16:07;52.97;40.39;66.52;;
66589;Laerm;53447;49.272;11.070;2023-06-26T06:18:33;52.95;39.56;68.25;;
66589;Laerm;53447;49.272;11.070;2023-06-26T06:20:58;50.37;39.64;65.22;;
66589;Laerm;53447;49.272;11.070;2023-06-26T06:23:23;51.74;39.48;65.38;;
66589;Laerm;53447;49.272;11.070;2023-06-26T06:25:49;50.26;40.53;66.77;;
66589;Laerm;53447;49.272;11.070;2023-06-26T06:28:14;56.34;40.32;70.81;;
66589;Laerm;53447;49.272;11.070;2023-06-26T06:30:41;50.46;40.18;67.76;;
66589;Laerm;53447;49.272;11.070;2023-06-26T06:33:06;47.36;40.11;62.38;;
66589;Laerm;53447;49.272;11.070;2023-06-26T06:35:32;53.07;40.18;69.33;;
66589;Laerm;53447;49.272;11.070;2023-06-26T06:37:57;53.83;40.39;66.76;;
66589;Laerm;53447;49.272;11.070;2023-06-26T06:40:22;54.57;39.96;66.84;;
66589;Laerm;53447;49.272;11.070;2023-06-26T06:42:48;55.49;39.88;66.55;;
66589;Laerm;53447;49.272;11.070;2023-06-26T06:45:13;56.41;40.32;69.25;;
66589;Laerm;53447;49.272;11.070;2023-06-26T06:47:38;52.53;42.31;66.53;;
66589;Laerm;53447;49.272;11.070;2023-06-26T06:50:03;51.81;40.39;65.86;;
66589;Laerm;53447;49.272;11.070;2023-06-26T06:52:34;53.86;40.59;64.98;;
66589;Laerm;53447;49.272;11.070;2023-06-26T06:54:59;54.93;40.59;70.18;;
66589;Laerm;53447;49.272;11.070;2023-06-26T06:57:30;54.23;41.43;69.15;;
66589;Laerm;53447;49.272;11.070;2023-06-26T06:59:55;58.41;41.09;75.21;;
66589;Laerm;53447;49.272;11.070;2023-06-26T07:02:20;53.69;40.79;69.59;;
66589;Laerm;53447;49.272;11.070;2023-06-26T07:04:45;56.19;40.91;68.95;;
66589;Laerm;53447;49.272;11.070;2023-06-26T07:07:12;52.74;40.59;64.20;;
66589;Laerm;53447;49.272;11.070;2023-06-26T07:09:38;55.20;40.11;71.09;;
66589;Laerm;53447;49.272;11.070;2023-06-26T07:12:03;52.99;39.56;67.19;;
66589;Laerm;53447;49.272;11.070;2023-06-26T07:14:29;57.08;39.72;72.96;;
66589;Laerm;53447;49.272;11.070;2023-06-26T07:16:54;54.97;40.32;66.69;;
66589;Laerm;53447;49.272;11.070;2023-06-26T07:19:19;52.54;39.39;65.87;;
66589;Laerm;53447;49.272;11.070;2023-06-26T07:21:44;54.01;38.31;66.61;;
66589;Laerm;53447;49.272;11.070;2023-06-26T07:24:11;55.52;39.80;69.78;;
66589;Laerm;53447;49.272;11.070;2023-06-26T07:26:36;48.92;38.31;64.17;;
66589;Laerm;53447;49.272;11.070;2023-06-26T07:29:01;53.09;38.42;68.78;;
66589;Laerm;53447;49.272;11.070;2023-06-26T07:31:27;58.71;37.58;82.21;;
66589;Laerm;53447;49.272;11.070;2023-06-26T07:33:52;57.90;40.18;75.70;;
66589;Laerm;53447;49.272;11.070;2023-06-26T07:36:17;54.71;39.12;68.97;;
66589;Laerm;53447;49.272;11.070;2023-06-26T07:38:43;51.63;38.83;63.81;;
66589;Laerm;53447;49.272;11.070;2023-06-26T07:41:08;46.59;39.12;62.26;;
66589;Laerm;53447;49.272;11.070;2023-06-26T07:43:33;47.31;39.21;62.13;;
66589;Laerm;53447;49.272;11.070;2023-06-26T07:45:58;52.97;39.39;70.25;;
66589;Laerm;53447;49.272;11.070;2023-06-26T07:48:24;51.17;38.31;63.02;;
66589;Laerm;53447;49.272;11.070;2023-06-26T07:50:49;54.89;40.11;66.73;;
66589;Laerm;53447;49.272;11.070;2023-06-26T07:53:15;56.13;39.88;67.61;;
66589;Laerm;53447;49.272;11.070;2023-06-26T07:55:40;55.58;39.48;67.70;;
66589;Laerm;53447;49.272;11.070;2023-06-26T07:58:05;53.28;39.64;68.42;;
66589;Laerm;53447;49.272;11.070;2023-06-26T08:00:30;52.11;40.25;65.07;;
66589;Laerm;53447;49.272;11.070;2023-06-26T08:02:56;54.35;39.29;72.96;;
66589;Laerm;53447;49.272;11.070;2023-06-26T08:05:21;50.87;38.93;66.78;;
66589;Laerm;53447;49.272;11.070;2023-06-26T08:07:46;46.19;37.84;63.56;;
66589;Laerm;53447;49.272;11.070;2023-06-26T08:10:12;48.43;38.42;64.33;;
66589;Laerm;53447;49.272;11.070;2023-06-26T08:12:37;52.22;38.83;67.55;;
66589;Laerm;53447;49.272;11.070;2023-06-26T08:15:05;53.02;38.53;67.10;;
66589;Laerm;53447;49.272;11.070;2023-06-26T08:17:31;53.41;38.73;65.60;;
66589;Laerm;53447;49.272;11.070;2023-06-26T08:19:56;54.37;38.83;66.47;;
66589;Laerm;53447;49.272;11.070;2023-06-26T08:22:21;50.94;39.21;64.59;;
66589;Laerm;53447;49.272;11.070;2023-06-26T08:24:46;53.96;39.03;70.37;;
66589;Laerm;53447;49.272;11.070;2023-06-26T08:27:12;51.62;38.73;65.15;;
66589;Laerm;53447;49.272;11.070;2023-06-26T08:29:37;54.58;38.93;69.69;;
66589;Laerm;53447;49.272;11.070;2023-06-26T08:32:02;55.49;39.03;78.27;;
66589;Laerm;53447;49.272;11.070;2023-06-26T08:34:28;55.53;39.30;68.62;;
66589;Laerm;53447;49.272;11.070;2023-06-26T08:36:53;54.82;38.73;67.43;;
66589;Laerm;53447;49.272;11.070;2023-06-26T08:39:18;50.16;38.63;65.20;;
66589;Laerm;53447;49.272;11.070;2023-06-26T08:41:44;52.46;39.48;65.41;;
66589;Laerm;53447;49.272;11.070;2023-06-26T08:44:09;51.33;39.39;64.03;;
66589;Laerm;53447;49.272;11.070;2023-06-26T08:46:35;54.44;39.72;68.88;;
66589;Laerm;53447;49.272;11.070;2023-06-26T08:49:02;52.87;39.12;68.85;;
66589;Laerm;53447;49.272;11.070;2023-06-26T08:51:30;57.55;40.66;73.63;;
66589;Laerm;53447;49.272;11.070;2023-06-26T08:54:00;54.97;38.42;77.46;;
66589;Laerm;53447;49.272;11.070;2023-06-26T08:56:32;52.82;39.12;67.42;;
66589;Laerm;53447;49.272;11.070;2023-06-26T08:59:00;56.40;39.64;72.79;;
66589;Laerm;53447;49.272;11.070;2023-06-26T09:01:26;52.51;38.73;66.28;;
66589;Laerm;53447;49.272;11.070;2023-06-26T09:03:51;50.64;39.12;67.83;;
66589;Laerm;53447;49.272;11.070;2023-06-26T09:06:17;51.31;39.56;65.91;;
66589;Laerm;53447;49.272;11.070;2023-06-26T09:08:44;49.44;39.30;64.98;;
66589;Laerm;53447;49.272;11.070;2023-06-26T09:11:09;56.46;39.80;74.27;;
66589;Laerm;53447;49.272;11.070;2023-06-26T09:13:34;56.67;38.63;77.67;;
66589;Laerm;53447;49.272;11.070;2023-06-26T09:16:04;59.42;38.08;77.64;;
66589;Laerm;53447;49.272;11.070;2023-06-26T09:18:29;48.39;37.58;64.81;;
66589;Laerm;53447;49.272;11.070;2023-06-26T09:20:54;57.93;39.12;78.29;;
66589;Laerm;53447;49.272;11.070;2023-06-26T09:23:20;56.62;39.56;69.92;;
66589;Laerm;53447;49.272;11.070;2023-06-26T09:25:47;57.84;39.80;81.66;;
66589;Laerm;53447;49.272;11.070;2023-06-26T09:28:12;51.33;39.21;65.77;;
66589;Laerm;53447;49.272;11.070;2023-06-26T09:30:37;52.81;38.63;64.71;;
66589;Laerm;53447;49.272;11.070;2023-06-26T09:33:36;51.26;38.42;64.85;;
66589;Laerm;53447;49.272;11.070;2023-06-26T09:35:54;51.85;38.42;66.68;;
66589;Laerm;53447;49.272;11.070;2023-06-26T09:38:19;50.08;39.48;64.18;;
66589;Laerm;53447;49.272;11.070;2023-06-26T09:40:46;56.27;40.59;74.75;;
66589;Laerm;53447;49.272;11.070;2023-06-26T09:43:12;49.48;39.21;64.46;;
66589;Laerm;53447;49.272;11.070;2023-06-26T09:45:39;49.25;39.39;64.34;;
66589;Laerm;53447;49.272;11.070;2023-06-26T09:48:04;49.21;38.08;65.93;;
66589;Laerm;53447;49.272;11.070;2023-06-26T09:50:32;49.23;38.63;64.88;;
66589;Laerm;53447;49.272;11.070;2023-06-26T09:52:58;47.19;37.58;63.19;;
66589;Laerm;53447;49.272;11.070;2023-06-26T09:55:24;54.19;39.39;72.96;;
66589;Laerm;53447;49.272;11.070;2023-06-26T09:57:50;48.71;37.73;63.36;;
66589;Laerm;53447;49.272;11.070;2023-06-26T10:00:16;53.68;38.83;70.56;;
66589;Laerm;53447;49.272;11.070;2023-06-26T10:02:42;53.25;40.53;67.50;;
66589;Laerm;53447;49.272;11.070;2023-06-26T10:05:08;50.76;38.83;65.92;;
66589;Laerm;53447;49.272;11.070;2023-06-26T10:07:33;60.94;40.59;76.58;;
66589;Laerm;53447;49.272;11.070;2023-06-26T10:10:00;55.65;38.73;75.34;;
66589;Laerm;53447;49.272;11.070;2023-06-26T10:12:28;54.06;39.80;66.79;;
66589;Laerm;53447;49.272;11.070;2023-06-26T10:14:53;59.32;43.26;74.71;;
66589;Laerm;53447;49.272;11.070;2023-06-26T10:17:20;61.25;41.48;78.30;;
66589;Laerm;53447;49.272;11.070;2023-06-26T10:19:47;54.66;42.13;66.26;;
66589;Laerm;53447;49.272;11.070;2023-06-26T10:22:14;54.97;41.26;66.73;;
66589;Laerm;53447;49.272;11.070;2023-06-26T10:24:40;54.17;40.25;67.66;;
66589;Laerm;53447;49.272;11.070;2023-06-26T10:27:21;51.47;39.30;66.06;;
66589;Laerm;53447;49.272;11.070;2023-06-26T10:29:49;54.58;40.59;70.85;;
66589;Laerm;53447;49.272;11.070;2023-06-26T10:32:15;49.52;39.12;65.56;;
66589;Laerm;53447;49.272;11.070;2023-06-26T10:34:42;50.93;39.88;65.57;;
66589;Laerm;53447;49.272;11.070;2023-06-26T10:37:08;52.29;40.18;66.03;;
66589;Laerm;53447;49.272;11.070;2023-06-26T10:39:52;49.80;37.96;73.45;;
66589;Laerm;53447;49.272;11.070;2023-06-26T10:42:19;53.87;39.64;73.72;;
66589;Laerm;53447;49.272;11.070;2023-06-26T10:44:46;48.28;39.30;67.94;;
66589;Laerm;53447;49.272;11.070;2023-06-26T10:47:12;49.48;39.12;65.47;;
66589;Laerm;53447;49.272;11.070;2023-06-26T10:49:53;53.50;39.12;70.46;;
66589;Laerm;53447;49.272;11.070;2023-06-26T10:52:19;47.57;38.93;65.08;;
66589;Laerm;53447;49.272;11.070;2023-06-26T10:54:44;52.77;38.31;67.85;;
66589;Laerm;53447;49.272;11.070;2023-06-26T10:57:09;49.82;39.48;64.25;;
66589;Laerm;53447;49.272;11.070;2023-06-26T10:59:38;54.84;38.93;66.99;;
66589;Laerm;53447;49.272;11.070;2023-06-26T11:02:04;51.99;38.63;66.49;;
66589;Laerm;53447;49.272;11.070;2023-06-26T11:07:18;49.47;38.73;65.57;;
66589;Laerm;53447;49.272;11.070;2023-06-26T11:12:33;51.23;37.84;64.58;;
66589;Laerm;53447;49.272;11.070;2023-06-26T11:14:59;52.29;38.31;65.21;;
66589;Laerm;53447;49.272;11.070;2023-06-26T11:17:25;54.01;38.42;70.39;;
66589;Laerm;53447;49.272;11.070;2023-06-26T11:19:51;54.51;38.31;67.21;;
66589;Laerm;53447;49.272;11.070;2023-06-26T11:22:17;45.88;37.84;62.17;;
66589;Laerm;53447;49.272;11.070;2023-06-26T11:24:43;48.55;38.73;64.94;;
66589;Laerm;53447;49.272;11.070;2023-06-26T11:27:09;50.29;38.07;66.78;;
66589;Laerm;53447;49.272;11.070;2023-06-26T11:29:34;53.60;39.72;74.26;;
66589;Laerm;53447;49.272;11.070;2023-06-26T11:32:00;52.82;39.21;68.33;;
66589;Laerm;53447;49.272;11.070;2023-06-26T11:34:28;54.56;38.08;71.24;;
66589;Laerm;53447;49.272;11.070;2023-06-26T11:36:56;50.96;37.96;71.07;;
66589;Laerm;53447;49.272;11.070;2023-06-26T11:39:21;48.97;38.63;62.05;;
66589;Laerm;53447;49.272;11.070;2023-06-26T11:41:46;49.43;38.42;61.91;;
66589;Laerm;53447;49.272;11.070;2023-06-26T11:44:12;54.47;37.84;66.60;;
66589;Laerm;53447;49.272;11.070;2023-06-26T11:46:39;51.49;39.30;67.79;;
66589;Laerm;53447;49.272;11.070;2023-06-26T11:49:04;50.21;39.21;68.02;;
66589;Laerm;53447;49.272;11.070;2023-06-26T11:51:30;52.44;39.21;65.89;;
66589;Laerm;53447;49.272;11.070;2023-06-26T11:53:55;62.21;40.59;84.11;;
66589;Laerm;53447;49.272;11.070;2023-06-26T11:56:20;54.80;39.88;67.25;;
66589;Laerm;53447;49.272;11.070;2023-06-26T11:59:07;52.56;38.93;68.76;;
66589;Laerm;53447;49.272;11.070;2023-06-26T12:01:34;51.82;38.93;65.01;;
66589;Laerm;53447;49.272;11.070;2023-06-26T12:04:00;54.40;40.59;67.88;;
66589;Laerm;53447;49.272;11.070;2023-06-26T12:06:27;57.11;39.56;73.32;;
66589;Laerm;53447;49.272;11.070;2023-06-26T12:08:52;53.84;41.15;67.58;;
66589;Laerm;53447;49.272;11.070;2023-06-26T12:11:17;56.77;40.53;70.42;;
66589;Laerm;53447;49.272;11.070;2023-06-26T12:13:44;56.15;39.96;68.63;;
66589;Laerm;53447;49.272;11.070;2023-06-26T12:16:11;53.57;37.45;66.49;;
66589;Laerm;53447;49.272;11.070;2023-06-26T12:18:37;53.79;38.73;72.24;;
66589;Laerm;53447;49.272;11.070;2023-06-26T12:21:02;50.62;38.31;67.06;;
66589;Laerm;53447;49.272;11.070;2023-06-26T12:23:34;50.61;38.83;65.56;;
66589;Laerm;53447;49.272;11.070;2023-06-26T12:26:19;54.90;37.84;71.36;;
66589;Laerm;53447;49.272;11.070;2023-06-26T12:28:45;50.45;38.83;63.30;;
66589;Laerm;53447;49.272;11.070;2023-06-26T12:31:14;52.71;39.80;65.55;;
66589;Laerm;53447;49.272;11.070;2023-06-26T12:33:40;46.69;39.96;63.78;;
66589;Laerm;53447;49.272;11.070;2023-06-26T12:36:10;49.28;39.39;65.47;;
66589;Laerm;53447;49.272;11.070;2023-06-26T12:38:35;49.46;38.93;68.51;;
66589;Laerm;53447;49.272;11.070;2023-06-26T12:41:00;50.74;41.38;65.75;;
66589;Laerm;53447;49.272;11.070;2023-06-26T12:43:26;52.73;41.59;65.69;;
66589;Laerm;53447;49.272;11.070;2023-06-26T12:45:57;54.16;38.73;67.09;;
66589;Laerm;53447;49.272;11.070;2023-06-26T12:48:38;54.88;39.30;71.97;;
66589;Laerm;53447;49.272;11.070;2023-06-26T12:51:09;51.98;38.20;65.48;;
66589;Laerm;53447;49.272;11.070;2023-06-26T12:53:35;49.40;38.73;68.22;;
66589;Laerm;53447;49.272;11.070;2023-06-26T12:56:00;43.46;37.96;58.15;;
66589;Laerm;53447;49.272;11.070;2023-06-26T12:58:25;55.12;41.48;69.50;;
66589;Laerm;53447;49.272;11.070;2023-06-26T13:00:50;47.24;40.72;64.49;;
66589;Laerm;53447;49.272;11.070;2023-06-26T13:03:15;49.54;38.83;67.61;;
66589;Laerm;53447;49.272;11.070;2023-06-26T13:05:41;53.15;38.42;70.13;;
66589;Laerm;53447;49.272;11.070;2023-06-26T13:08:06;58.12;40.59;74.19;;
66589;Laerm;53447;49.272;11.070;2023-06-26T13:10:33;54.61;40.39;66.71;;
66589;Laerm;53447;49.272;11.070;2023-06-26T13:12:58;52.72;39.03;69.78;;
66589;Laerm;53447;49.272;11.070;2023-06-26T13:15:23;52.49;39.64;65.59;;
66589;Laerm;53447;49.272;11.070;2023-06-26T13:17:48;55.24;38.73;69.68;;
66589;Laerm;53447;49.272;11.070;2023-06-26T13:20:14;52.84;39.30;66.06;;
66589;Laerm;53447;49.272;11.070;2023-06-26T13:22:39;50.77;38.93;64.56;;
66589;Laerm;53447;49.272;11.070;2023-06-26T13:25:05;56.28;38.93;73.58;;
66589;Laerm;53447;49.272;11.070;2023-06-26T13:27:30;53.05;39.21;70.33;;
66589;Laerm;53447;49.272;11.070;2023-06-26T13:29:55;48.30;40.46;63.85;;
66589;Laerm;53447;49.272;11.070;2023-06-26T13:32:20;53.80;39.12;69.02;;
66589;Laerm;53447;49.272;11.070;2023-06-26T13:34:46;54.62;38.93;68.08;;
66589;Laerm;53447;49.272;11.070;2023-06-26T13:37:11;54.30;39.39;67.64;;